GOBD Airport Informations

Runway Information
Runway 01 Length 11483 ft width 197 ft
Elevation 272 ft Threshold 394 ft Heading 359
Runway 19 Length 11483 ft Width 197 ft
Elevation 251 ft Threshold 394 ft Heading 179
Airport Frequencies
Airport Navaids
Airport Weather Information & NOTAM
ADDS - METARS form results

(1008 UTC 28 September 2022)
Data provider http://aviationweather.gov/metar/data/
 
METAR text: GOBD 280930Z 30005KT 260V330 9999 FEW016 28/26 Q1013 NOSIG
Conditions at: GOBD (DAKAR/DIAGNE , SN) observed 0930 UTC 28 September 2022
Temperature: 28.0°C (82°F)
Dewpoint: 26.0°C (79°F) [RH = 89%]
Pressure (altimeter): 29.91 inches Hg (1013.0 mb)
Winds: from the WNW (300 degrees) at 6 MPH (5 knots; 2.6 m/s)
Visibility: 6 or more miles (10+ km)
Ceiling: at least 12,000 feet AGL
Clouds: few clouds at 1600 feet AGL
Weather: no significant weather observed at this time

Forecast for: GOBD (DAKAR/DIAGNE , SN)
Text: TAF GOBD 280500Z 2806/2912 30010KT 9999 SCT013
Forecast period: 0600 UTC 28 September 2022 to 1200 UTC 29 September 2022
Forecast type: FROM: standard forecast or significant change
Winds: from the WNW (300 degrees) at 12 MPH (10 knots; 5.1 m/s)
Visibility: 6 or more miles (10+ km)
Ceiling: at least 12,000 feet AGL
Clouds: scattered clouds at 1300 feet AGL
Weather: no significant weather forecast for this period